createdAt,value
2022-12-08T00:02:39.879Z,9.05
2022-12-08T00:05:52.810Z,10.93
2022-12-08T00:09:07.749Z,9.77
2022-12-08T00:12:22.739Z,8.67
2022-12-08T00:15:31.333Z,9.95
2022-12-08T00:18:40.065Z,10.48
2022-12-08T00:21:50.057Z,16.23
2022-12-08T00:25:02.041Z,14.40
2022-12-08T00:28:16.915Z,15.40
2022-12-08T00:31:37.004Z,13.98
2022-12-08T00:34:51.811Z,13.77
2022-12-08T00:38:01.217Z,15.70
2022-12-08T00:41:13.842Z,16.02
2022-12-08T00:44:23.492Z,14.83
2022-12-08T00:47:45.590Z,15.02
2022-12-08T00:51:13.461Z,14.45
2022-12-08T00:54:27.785Z,16.37
2022-12-08T00:58:01.935Z,16.35
2022-12-08T01:01:19.045Z,14.07
2022-12-08T01:04:33.790Z,14.57
2022-12-08T01:07:35.825Z,14.87
2022-12-08T01:11:15.841Z,14.85
2022-12-08T01:14:20.040Z,14.40
2022-12-08T01:17:34.979Z,16.03
2022-12-08T01:20:43.674Z,14.70
2022-12-08T01:23:58.771Z,15.88
2022-12-08T01:27:06.850Z,15.52
2022-12-08T01:30:17.511Z,14.75
2022-12-08T01:33:25.875Z,15.03
2022-12-08T01:36:41.805Z,15.63
2022-12-08T01:39:52.774Z,16.52
2022-12-08T01:43:01.406Z,17.85
2022-12-08T01:46:11.820Z,21.60
2022-12-08T01:49:37.788Z,22.83
2022-12-08T01:52:56.786Z,18.23
2022-12-08T01:56:07.020Z,20.33
2022-12-08T01:59:21.886Z,20.65
2022-12-08T02:02:32.918Z,19.27
2022-12-08T02:05:41.807Z,19.98
2022-12-08T02:13:06.032Z,17.40
2022-12-08T02:16:41.890Z,18.50
2022-12-08T02:27:49.891Z,18.62
2022-12-08T02:31:21.361Z,19.48
2022-12-08T02:34:44.913Z,16.97
2022-12-08T02:37:57.316Z,15.45
2022-12-08T02:41:28.828Z,15.90
2022-12-08T02:44:43.358Z,14.90
2022-12-08T02:52:19.867Z,14.90
2022-12-08T02:55:32.865Z,14.63
2022-12-08T02:59:18.866Z,14.27
2022-12-08T03:02:53.900Z,12.95
2022-12-08T03:06:19.846Z,16.12
2022-12-08T03:09:43.790Z,13.82
2022-12-08T03:13:00.050Z,13.85
2022-12-08T03:16:19.987Z,16.53
2022-12-08T03:19:34.819Z,14.35
2022-12-08T03:22:45.803Z,14.77
2022-12-08T03:26:02.907Z,15.88
2022-12-08T03:29:20.457Z,14.60
2022-12-08T03:32:36.899Z,15.03
2022-12-08T03:35:46.846Z,19.73
2022-12-08T03:38:58.958Z,16.75
2022-12-08T03:42:13.880Z,13.95
2022-12-08T03:45:15.845Z,16.70
2022-12-08T03:48:39.273Z,18.45
2022-12-08T03:51:47.782Z,17.98
2022-12-08T03:54:56.641Z,13.43
2022-12-08T04:01:56.103Z,12.13
2022-12-08T04:05:50.042Z,12.27
2022-12-08T04:09:11.093Z,11.05
2022-12-08T04:12:21.890Z,10.27
2022-12-08T04:15:30.514Z,10.27
2022-12-08T04:25:40.798Z,10.55
2022-12-08T04:29:00.860Z,11.93
2022-12-08T04:32:15.871Z,11.60
2022-12-08T04:35:24.425Z,11.45
2022-12-08T04:42:30.896Z,11.73
2022-12-08T04:45:44.047Z,11.93
2022-12-08T04:48:58.817Z,12.23
2022-12-08T04:52:07.415Z,11.27
2022-12-08T04:55:17.706Z,11.63
2022-12-08T05:02:19.548Z,12.47
2022-12-08T05:05:33.807Z,13.10
2022-12-08T05:09:00.166Z,13.77
2022-12-08T05:12:17.852Z,12.77
2022-12-08T05:15:25.830Z,11.63
2022-12-08T05:19:14.195Z,13.27
2022-12-08T05:22:22.860Z,11.10
2022-12-08T05:25:39.850Z,13.45
2022-12-08T05:32:58.850Z,12.30
2022-12-08T05:36:00.654Z,12.17
2022-12-08T05:43:29.811Z,12.50
2022-12-08T05:46:46.851Z,13.32
2022-12-08T05:50:29.829Z,12.00
2022-12-08T05:53:38.456Z,14.00
2022-12-08T05:56:49.034Z,12.93
2022-12-08T06:00:40.879Z,16.15
2022-12-08T06:12:40.286Z,10.90
2022-12-08T06:15:48.856Z,12.85
2022-12-08T06:19:25.908Z,11.40
2022-12-08T06:22:34.740Z,12.55
2022-12-08T06:25:42.906Z,11.53
2022-12-08T06:33:15.874Z,12.13
2022-12-08T07:42:18.187Z,12.77
2022-12-08T07:45:31.429Z,11.32
2022-12-08T08:03:27.832Z,12.60
2022-12-08T08:50:05.136Z,11.57
2022-12-08T08:53:41.584Z,11.85
2022-12-08T09:01:04.906Z,11.35
2022-12-08T09:04:13.234Z,12.52
2022-12-08T09:12:27.006Z,12.27
2022-12-08T10:18:30.907Z,9.57
2022-12-08T10:21:42.251Z,10.43
2022-12-08T10:25:06.945Z,9.63
2022-12-08T11:24:52.568Z,7.40
2022-12-08T11:40:03.466Z,7.32
2022-12-08T11:43:41.435Z,6.22
2022-12-08T11:47:28.959Z,5.78
2022-12-08T11:55:37.201Z,6.67
2022-12-08T11:59:18.889Z,6.93
2022-12-08T12:02:43.899Z,6.57
2022-12-08T12:06:30.457Z,7.35
2022-12-08T12:14:04.929Z,5.83
2022-12-08T12:21:37.916Z,7.32
2022-12-08T12:25:19.000Z,6.15
2022-12-08T12:35:54.938Z,5.90
2022-12-08T13:06:42.355Z,7.28
2022-12-08T13:14:11.378Z,5.80
2022-12-08T13:21:45.954Z,6.18
2022-12-08T13:25:36.671Z,6.90
2022-12-08T13:41:43.926Z,6.28
2022-12-08T13:45:25.555Z,7.20
2022-12-08T13:57:05.458Z,7.62
2022-12-08T14:00:23.932Z,6.85
2022-12-08T14:12:05.935Z,6.62
2022-12-08T14:33:24.351Z,6.87
2022-12-08T14:36:33.763Z,6.78
2022-12-08T15:06:12.362Z,8.05
2022-12-08T15:23:41.713Z,7.70
2022-12-08T15:26:57.348Z,8.02
2022-12-08T15:30:10.648Z,7.82
2022-12-08T15:40:52.359Z,8.38
2022-12-08T15:44:10.606Z,7.90
2022-12-08T15:56:28.680Z,7.37
2022-12-08T16:00:50.529Z,7.93
2022-12-08T16:27:50.607Z,9.27
2022-12-08T16:44:29.850Z,8.10
2022-12-08T16:56:38.547Z,6.25
2022-12-08T17:16:43.708Z,7.62
2022-12-08T17:20:18.749Z,7.47
2022-12-08T17:24:26.523Z,7.28
2022-12-08T17:32:34.767Z,7.00
2022-12-08T17:48:47.450Z,6.60
2022-12-08T18:12:02.406Z,6.37
2022-12-08T18:19:53.732Z,6.90
2022-12-08T18:34:42.743Z,6.62
2022-12-08T18:42:47.254Z,7.05
2022-12-08T19:22:39.332Z,6.07
2022-12-08T19:25:58.309Z,7.13
2022-12-08T19:29:32.871Z,7.18
2022-12-08T19:32:51.730Z,6.70
2022-12-08T19:36:01.976Z,6.55
2022-12-08T19:39:19.431Z,6.47
2022-12-08T19:42:53.309Z,6.50
2022-12-08T19:45:55.469Z,6.20
2022-12-08T19:52:39.537Z,7.15
2022-12-08T19:55:54.319Z,7.10
2022-12-08T19:59:33.378Z,7.30
2022-12-08T20:02:52.490Z,7.15
2022-12-08T20:06:03.612Z,7.60
2022-12-08T20:13:24.374Z,7.50
2022-12-08T20:16:40.381Z,7.97
2022-12-08T20:19:43.675Z,7.40
2022-12-08T20:31:00.921Z,8.65
2022-12-08T20:34:19.583Z,7.83
2022-12-08T20:45:59.467Z,7.65
2022-12-08T20:49:23.401Z,8.10
2022-12-08T20:52:32.250Z,8.53
2022-12-08T20:55:48.555Z,8.52
2022-12-08T20:59:21.635Z,8.98
2022-12-08T21:02:43.224Z,8.82
2022-12-08T21:05:54.251Z,9.18
2022-12-08T21:09:53.637Z,9.40
2022-12-08T21:13:05.762Z,8.93
2022-12-08T21:16:18.391Z,9.07
2022-12-08T21:19:51.390Z,8.70
2022-12-08T21:22:53.332Z,9.27
2022-12-08T21:26:16.554Z,9.47
2022-12-08T21:29:34.606Z,9.82
2022-12-08T22:31:25.626Z,10.77
2022-12-08T22:46:33.482Z,10.25
2022-12-08T22:49:50.385Z,11.07
2022-12-08T22:53:10.378Z,11.68
2022-12-08T22:56:38.852Z,11.63
2022-12-08T23:04:18.331Z,11.38
2022-12-08T23:11:55.483Z,11.02
2022-12-08T23:15:11.634Z,10.75
2022-12-08T23:22:16.393Z,11.57
2022-12-08T23:25:25.125Z,11.68
2022-12-08T23:33:03.072Z,11.48
2022-12-08T23:36:50.769Z,11.90
2022-12-08T23:44:06.595Z,11.23
